createdAt,value
2024-05-09T00:03:37.337Z,14.07
2024-05-09T00:07:39.311Z,14.93
2024-05-09T00:11:41.404Z,14.60
2024-05-09T00:15:43.620Z,14.82
2024-05-09T00:19:46.955Z,15.75
2024-05-09T00:23:49.249Z,14.40
2024-05-09T00:27:51.429Z,15.18
2024-05-09T00:31:53.543Z,14.52
2024-05-09T00:35:55.610Z,13.65
2024-05-09T00:39:57.743Z,14.65
2024-05-09T00:44:00.304Z,15.40
2024-05-09T00:48:06.658Z,16.00
2024-05-09T00:52:10.463Z,14.50
2024-05-09T00:56:13.106Z,14.23
2024-05-09T01:00:25.954Z,15.13
2024-05-09T01:04:32.875Z,14.75
2024-05-09T01:08:35.119Z,14.55
2024-05-09T01:12:37.237Z,14.45
2024-05-09T01:16:40.035Z,14.45
2024-05-09T01:20:44.649Z,15.45
2024-05-09T01:24:47.507Z,15.55
2024-05-09T01:28:49.510Z,15.73
2024-05-09T01:32:51.662Z,15.60
2024-05-09T01:36:53.806Z,15.02
2024-05-09T01:40:56.122Z,15.77
2024-05-09T01:44:58.380Z,15.60
2024-05-09T01:49:00.840Z,16.27
2024-05-09T01:53:03.039Z,16.13
2024-05-09T01:57:05.559Z,17.10
2024-05-09T02:01:07.803Z,15.32
2024-05-09T02:05:10.056Z,15.68
2024-05-09T02:09:12.195Z,15.60
2024-05-09T02:13:14.668Z,16.23
2024-05-09T02:17:16.793Z,15.68
2024-05-09T02:21:18.953Z,15.57
2024-05-09T02:25:23.300Z,13.90
2024-05-09T02:29:25.446Z,15.10
2024-05-09T02:33:27.888Z,15.07
2024-05-09T02:37:30.095Z,14.20
2024-05-09T02:41:32.188Z,14.15
2024-05-09T02:45:34.351Z,14.73
2024-05-09T02:49:36.671Z,14.75
2024-05-09T02:53:38.694Z,14.43
2024-05-09T02:57:40.760Z,15.00
2024-05-09T03:01:42.940Z,14.93
2024-05-09T03:05:45.474Z,15.33
2024-05-09T03:09:47.693Z,14.35
2024-05-09T03:13:53.118Z,14.55
2024-05-09T03:17:55.279Z,14.25
2024-05-09T03:21:58.874Z,13.55
2024-05-09T03:26:01.076Z,15.13
2024-05-09T03:30:05.511Z,13.97
2024-05-09T03:34:11.223Z,13.85
2024-05-09T03:38:13.586Z,13.75
2024-05-09T03:42:15.850Z,12.13
2024-05-09T03:46:17.835Z,12.93
2024-05-09T03:50:29.575Z,13.32
2024-05-09T03:54:36.068Z,13.20
2024-05-09T03:58:38.177Z,13.65
2024-05-09T04:02:43.406Z,12.43
2024-05-09T04:06:45.546Z,12.45
2024-05-09T04:10:49.065Z,12.98
2024-05-09T04:14:51.033Z,11.88
2024-05-09T04:18:53.614Z,11.80
2024-05-09T04:22:55.884Z,11.73
2024-05-09T04:26:57.873Z,10.85
2024-05-09T04:31:00.031Z,11.40
2024-05-09T04:35:02.325Z,11.60
2024-05-09T04:39:04.670Z,11.02
2024-05-09T04:43:13.634Z,11.27
2024-05-09T04:47:15.869Z,11.40
2024-05-09T04:51:18.191Z,11.17
2024-05-09T04:55:20.256Z,11.77
2024-05-09T04:59:22.352Z,10.97
2024-05-09T05:03:24.833Z,11.82
2024-05-09T05:07:27.029Z,11.27
2024-05-09T05:11:29.174Z,10.95
2024-05-09T05:15:31.135Z,10.13
2024-05-09T05:19:33.292Z,10.25
2024-05-09T05:23:35.495Z,9.95
2024-05-09T05:27:38.423Z,10.40
2024-05-09T05:31:40.610Z,9.65
2024-05-09T05:35:42.865Z,10.27
2024-05-09T05:39:45.069Z,9.90
2024-05-09T05:43:49.204Z,9.57
2024-05-09T05:47:52.098Z,10.30
2024-05-09T05:51:54.250Z,10.25
2024-05-09T05:55:56.299Z,9.20
2024-05-09T05:59:58.346Z,8.55
2024-05-09T06:04:00.633Z,8.80
2024-05-09T06:08:03.684Z,8.40
2024-05-09T06:12:06.207Z,9.35
2024-05-09T06:16:08.312Z,8.40
2024-05-09T06:20:20.133Z,8.00
2024-05-09T06:24:26.519Z,8.10
2024-05-09T06:28:29.717Z,7.45
2024-05-09T06:32:31.892Z,7.03
2024-05-09T06:36:34.028Z,7.18
2024-05-09T06:40:38.898Z,7.07
2024-05-09T06:44:42.434Z,6.95
2024-05-09T06:48:44.834Z,6.38
2024-05-09T06:52:47.687Z,6.85
2024-05-09T06:56:49.978Z,6.90
2024-05-09T07:00:52.432Z,6.35
2024-05-09T07:04:54.771Z,6.15
2024-05-09T07:08:56.776Z,5.95
2024-05-09T07:12:59.066Z,5.22
2024-05-09T07:17:07.486Z,5.93
2024-05-09T07:21:09.757Z,5.75
2024-05-09T07:25:11.896Z,5.28
2024-05-09T07:29:13.821Z,5.88
2024-05-09T07:33:22.519Z,5.38
2024-05-09T07:37:26.098Z,5.90
2024-05-09T07:41:28.214Z,5.38
2024-05-09T07:45:47.724Z,6.07
2024-05-09T07:51:32.811Z,5.47
2024-05-09T07:54:15.479Z,5.70
2024-05-09T07:58:17.602Z,6.88
2024-05-09T08:02:20.958Z,6.22
2024-05-09T08:06:23.992Z,5.90
2024-05-09T08:10:29.089Z,5.93
2024-05-09T08:14:32.740Z,5.80
2024-05-09T08:18:35.388Z,5.40
2024-05-09T08:22:37.685Z,6.07
2024-05-09T08:26:39.844Z,5.97
2024-05-09T08:30:42.933Z,6.40
2024-05-09T08:34:45.172Z,5.40
2024-05-09T08:38:47.348Z,5.70
2024-05-09T08:42:50.870Z,5.88
2024-05-09T08:46:53.598Z,5.25
2024-05-09T08:50:59.365Z,5.07
2024-05-09T08:55:02.094Z,5.20
2024-05-09T08:59:07.085Z,5.25
2024-05-09T09:03:11.632Z,4.93
2024-05-09T09:07:14.988Z,4.75
2024-05-09T09:11:17.139Z,4.18
2024-05-09T09:15:19.195Z,3.83
2024-05-09T09:19:23.629Z,4.47
2024-05-09T09:23:30.234Z,3.80
2024-05-09T09:27:33.947Z,3.22
2024-05-09T09:31:37.356Z,3.55
2024-05-09T09:35:40.768Z,3.20
2024-05-09T09:39:48.963Z,2.83
2024-05-09T09:43:53.670Z,3.50
2024-05-09T09:47:59.638Z,3.20
2024-05-09T09:52:02.867Z,2.85
2024-05-09T09:56:07.688Z,2.40
2024-05-09T10:00:11.982Z,4.07
2024-05-09T10:04:19.842Z,3.00
2024-05-09T10:08:23.860Z,2.50
2024-05-09T10:12:26.301Z,2.70
2024-05-09T10:16:32.054Z,2.35
2024-05-09T10:20:41.749Z,3.17
2024-05-09T10:24:54.266Z,3.00
2024-05-09T10:28:58.710Z,2.90
2024-05-09T10:33:00.999Z,3.25
2024-05-09T10:37:04.938Z,3.78
2024-05-09T10:41:08.732Z,3.40
2024-05-09T10:45:10.813Z,3.70
2024-05-09T10:49:14.880Z,3.53
2024-05-09T10:53:19.200Z,2.67
2024-05-09T10:57:22.025Z,3.03
2024-05-09T11:01:25.136Z,3.03
2024-05-09T11:05:27.712Z,5.22
2024-05-09T11:09:31.481Z,3.63
2024-05-09T11:13:36.174Z,3.47
2024-05-09T11:17:38.569Z,3.40
2024-05-09T11:21:40.772Z,3.65
2024-05-09T11:25:58.344Z,2.97
2024-05-09T11:30:01.741Z,3.53
2024-05-09T11:34:05.473Z,3.92
2024-05-09T11:38:07.680Z,2.80
2024-05-09T11:42:09.885Z,3.30
2024-05-09T11:46:12.271Z,3.42
2024-05-09T11:50:22.523Z,3.35
2024-05-09T11:54:29.814Z,3.92
2024-05-09T11:58:36.941Z,4.55
2024-05-09T12:02:39.145Z,2.90
2024-05-09T12:06:41.410Z,2.92
2024-05-09T12:10:43.675Z,3.70
2024-05-09T12:14:45.834Z,2.70
2024-05-09T12:18:48.220Z,3.45
2024-05-09T12:22:50.499Z,3.65
2024-05-09T12:26:52.725Z,3.97
2024-05-09T12:30:54.844Z,2.80
2024-05-09T12:34:57.010Z,2.50
2024-05-09T12:38:59.165Z,2.90
2024-05-09T12:43:01.398Z,3.17
2024-05-09T12:47:03.520Z,2.88
2024-05-09T12:51:06.085Z,3.15
2024-05-09T12:55:10.034Z,2.85
2024-05-09T12:59:12.372Z,3.10
2024-05-09T13:03:14.797Z,3.20
2024-05-09T13:07:17.200Z,3.20
2024-05-09T13:11:19.614Z,3.30
2024-05-09T13:15:21.771Z,2.83
2024-05-09T13:19:24.095Z,3.08
2024-05-09T13:23:26.450Z,2.88
2024-05-09T13:27:28.501Z,2.80
2024-05-09T13:31:30.825Z,2.80
2024-05-09T13:35:34.391Z,2.67
2024-05-09T13:39:36.758Z,2.55
2024-05-09T13:43:38.938Z,2.85
2024-05-09T13:47:41.357Z,2.70
2024-05-09T13:51:43.678Z,2.90
2024-05-09T13:55:46.142Z,2.72
2024-05-09T13:59:48.316Z,3.50
2024-05-09T14:03:50.511Z,3.00
2024-05-09T14:07:52.589Z,3.30
2024-05-09T14:11:54.623Z,2.83
2024-05-09T14:15:56.969Z,2.65
2024-05-09T14:19:59.314Z,2.38
2024-05-09T14:24:01.299Z,3.13
2024-05-09T14:28:04.029Z,2.78
2024-05-09T14:32:06.547Z,2.83
2024-05-09T14:36:08.722Z,2.85
2024-05-09T14:40:25.960Z,3.08
2024-05-09T14:44:33.283Z,2.92
2024-05-09T14:48:35.634Z,2.67
2024-05-09T14:52:37.737Z,2.88
2024-05-09T14:56:40.183Z,2.70
2024-05-09T15:00:46.714Z,2.80
2024-05-09T15:04:52.365Z,2.80
2024-05-09T15:08:58.952Z,2.63
2024-05-09T15:13:01.116Z,2.72
2024-05-09T15:17:03.506Z,3.10
2024-05-09T15:21:05.933Z,3.28
2024-05-09T15:25:08.042Z,3.28
2024-05-09T15:29:10.725Z,2.90
2024-05-09T15:33:12.911Z,2.70
2024-05-09T15:37:15.467Z,2.60
2024-05-09T15:41:17.480Z,2.80
2024-05-09T15:45:19.700Z,2.67
2024-05-09T15:49:21.828Z,2.58
2024-05-09T15:53:24.117Z,3.00
2024-05-09T15:57:26.260Z,2.70
2024-05-09T16:01:28.806Z,2.92
2024-05-09T16:05:31.129Z,2.90
2024-05-09T16:09:33.308Z,2.92
2024-05-09T16:13:35.335Z,2.60
2024-05-09T16:17:37.612Z,2.50
2024-05-09T16:21:39.793Z,2.65
2024-05-09T16:25:47.719Z,2.70
2024-05-09T16:29:50.072Z,2.88
2024-05-09T16:33:52.335Z,2.42
2024-05-09T16:37:54.553Z,2.60
2024-05-09T16:41:56.556Z,3.10
2024-05-09T16:45:58.730Z,2.85
2024-05-09T16:50:00.755Z,2.50
2024-05-09T16:54:02.937Z,2.80
2024-05-09T16:58:08.043Z,2.10
2024-05-09T17:02:10.461Z,2.60
2024-05-09T17:06:12.987Z,2.78
2024-05-09T17:10:22.112Z,2.38
2024-05-09T17:14:29.025Z,2.95
2024-05-09T17:18:31.855Z,2.53
2024-05-09T17:22:35.202Z,2.72
2024-05-09T17:26:37.423Z,2.55
2024-05-09T17:30:41.617Z,2.95
2024-05-09T17:34:45.071Z,2.70
2024-05-09T17:38:47.292Z,3.22
2024-05-09T17:42:49.497Z,2.70
2024-05-09T17:46:51.617Z,2.55
2024-05-09T17:50:53.615Z,2.42
2024-05-09T17:54:55.840Z,2.65
2024-05-09T17:58:57.951Z,2.72
2024-05-09T18:03:00.132Z,2.60
2024-05-09T18:07:02.104Z,2.30
2024-05-09T18:11:04.416Z,2.47
2024-05-09T18:15:06.702Z,2.95
2024-05-09T18:19:09.685Z,2.65
2024-05-09T18:23:17.273Z,2.80
2024-05-09T18:27:20.457Z,3.38
2024-05-09T18:31:22.669Z,3.38
2024-05-09T18:35:24.736Z,3.65
2024-05-09T18:39:26.905Z,3.67
2024-05-09T18:43:38.009Z,3.47
2024-05-09T18:47:44.591Z,3.40
2024-05-09T18:51:46.731Z,2.95
2024-05-09T18:55:48.918Z,3.30
2024-05-09T18:59:51.180Z,3.15
2024-05-09T19:03:53.585Z,3.47
2024-05-09T19:07:55.909Z,3.08
2024-05-09T19:12:00.590Z,3.83
2024-05-09T19:16:03.388Z,3.90
2024-05-09T19:20:06.277Z,4.20
2024-05-09T19:24:09.874Z,3.20
2024-05-09T19:28:12.208Z,3.60
2024-05-09T19:32:14.359Z,3.10
2024-05-09T19:36:19.577Z,3.40
2024-05-09T19:40:28.967Z,3.60
2024-05-09T19:44:35.489Z,6.32
2024-05-09T19:48:37.787Z,4.65
2024-05-09T19:52:40.205Z,3.40
2024-05-09T19:56:45.216Z,3.15
2024-05-09T20:00:47.864Z,3.28
2024-05-09T20:04:51.371Z,3.85
2024-05-09T20:08:57.157Z,3.50
2024-05-09T20:12:59.155Z,3.42
2024-05-09T20:17:01.465Z,3.80
2024-05-09T20:21:04.091Z,3.50
2024-05-09T20:25:06.696Z,3.22
2024-05-09T20:29:08.874Z,3.40
2024-05-09T20:33:12.415Z,3.72
2024-05-09T20:37:14.924Z,3.53
2024-05-09T20:41:17.140Z,5.13
2024-05-09T20:45:19.255Z,4.07
2024-05-09T20:49:22.234Z,3.58
2024-05-09T20:53:24.489Z,3.90
2024-05-09T20:57:26.707Z,3.58
2024-05-09T21:01:28.809Z,3.90
2024-05-09T21:05:31.113Z,3.70
2024-05-09T21:09:33.209Z,3.75
2024-05-09T21:13:35.730Z,3.72
2024-05-09T21:17:37.946Z,3.80
2024-05-09T21:21:41.013Z,4.35
2024-05-09T21:25:43.002Z,4.00
2024-05-09T21:29:45.353Z,3.67
2024-05-09T21:33:47.793Z,4.20
2024-05-09T21:37:50.007Z,4.13
2024-05-09T21:41:52.189Z,4.88
2024-05-09T21:45:54.178Z,4.80
2024-05-09T21:49:56.562Z,4.32
2024-05-09T21:53:58.994Z,4.95
2024-05-09T21:58:01.192Z,4.85
2024-05-09T22:02:03.691Z,4.57
2024-05-09T22:06:06.009Z,4.07
2024-05-09T22:10:15.970Z,4.80
2024-05-09T22:14:25.406Z,5.32
2024-05-09T22:18:27.495Z,4.22
2024-05-09T22:22:29.524Z,3.80
2024-05-09T22:26:31.446Z,3.97
2024-05-09T22:30:37.586Z,3.85
2024-05-09T22:34:41.776Z,4.07
2024-05-09T22:38:43.792Z,4.55
2024-05-09T22:42:45.885Z,3.80
2024-05-09T22:46:48.023Z,4.07
2024-05-09T22:50:50.200Z,3.83
2024-05-09T22:54:52.390Z,3.80
2024-05-09T22:58:55.230Z,4.65
2024-05-09T23:02:57.298Z,4.60
2024-05-09T23:06:59.488Z,4.20
2024-05-09T23:11:01.545Z,4.07
2024-05-09T23:15:03.706Z,4.20
2024-05-09T23:19:05.913Z,4.05
2024-05-09T23:23:09.769Z,4.00
2024-05-09T23:27:12.845Z,4.68
2024-05-09T23:31:15.522Z,4.47
2024-05-09T23:35:17.586Z,3.80
2024-05-09T23:39:19.680Z,4.80
2024-05-09T23:43:21.803Z,4.70
2024-05-09T23:47:24.150Z,4.75
2024-05-09T23:51:26.184Z,4.53
2024-05-09T23:55:28.655Z,4.68
2024-05-09T23:59:30.843Z,4.57
